createdAt,value
2022-12-13T00:03:43.477Z,97149.06
2022-12-13T00:12:21.312Z,97163.19
2022-12-13T00:14:56.235Z,97166.45
2022-12-13T00:17:26.502Z,97164.83
2022-12-13T00:20:03.378Z,97172.70
2022-12-13T00:22:38.109Z,97175.43
2022-12-13T00:25:11.021Z,97184.70
2022-12-13T00:27:48.778Z,97192.05
2022-12-13T00:33:26.138Z,97190.42
2022-12-13T00:35:57.585Z,97193.16
2022-12-13T00:41:29.001Z,97196.13
2022-12-13T00:44:08.513Z,97203.18
2022-12-13T00:46:50.961Z,97200.45
2022-12-13T00:49:22.689Z,97200.97
2022-12-13T00:51:52.723Z,97196.63
2022-12-13T00:54:23.657Z,97190.36
2022-12-13T00:56:54.248Z,97189.00
2022-12-13T00:59:29.017Z,97187.64
2022-12-13T01:02:01.799Z,97178.10
2022-12-13T01:04:37.342Z,97176.45
2022-12-13T01:07:18.340Z,97171.80
2022-12-13T01:10:03.107Z,97176.72
2022-12-13T01:12:34.008Z,97174.00
2022-12-13T01:15:04.404Z,97170.43
2022-12-13T01:17:35.923Z,97164.98
2022-12-13T01:20:09.879Z,97159.81
2022-12-13T01:22:40.075Z,97156.55
2022-12-13T01:25:16.695Z,97151.89
2022-12-13T01:27:58.628Z,97150.02
2022-12-13T01:30:34.046Z,97147.55
2022-12-13T01:33:16.780Z,97136.66
2022-12-13T01:35:56.407Z,97139.38
2022-12-13T01:38:40.366Z,97142.89
2022-12-13T01:41:17.539Z,97145.62
2022-12-13T01:43:56.681Z,97146.17
2022-12-13T01:49:28.709Z,97146.72
2022-12-13T01:53:00.896Z,97138.25
2022-12-13T01:55:41.803Z,97131.17
2022-12-13T01:58:11.697Z,97141.52
2022-12-13T02:00:54.445Z,97149.67
2022-12-13T02:03:25.051Z,97140.42
2022-12-13T02:06:13.537Z,97135.78
2022-12-13T02:11:35.232Z,97128.71
2022-12-13T02:25:04.075Z,97116.70
2022-12-13T02:34:11.919Z,97082.69
2022-12-13T02:37:02.900Z,97094.09
2022-12-13T02:39:49.641Z,97097.06
2022-12-13T02:45:50.692Z,97085.09
2022-12-13T02:49:02.379Z,97089.45
2022-12-13T02:54:37.466Z,97069.02
2022-12-13T02:57:30.308Z,97058.13
2022-12-13T03:00:22.507Z,97058.13
2022-12-13T03:03:04.876Z,97051.31
2022-12-13T03:09:41.224Z,97043.95
2022-12-13T03:12:04.871Z,97040.96
2022-12-13T03:14:37.407Z,97050.23
2022-12-13T03:17:17.385Z,97053.77
2022-12-13T03:19:55.187Z,97061.14
2022-12-13T03:22:35.425Z,97070.39
2022-12-13T03:25:10.173Z,97060.63
2022-12-13T03:27:44.273Z,97069.32
2022-12-13T03:30:20.816Z,97079.17
2022-12-13T03:35:56.807Z,97051.91
2022-12-13T03:38:36.809Z,97061.78
2022-12-13T03:41:13.325Z,97053.08
2022-12-13T03:43:49.177Z,97059.34
2022-12-13T03:46:20.526Z,97048.44
2022-12-13T03:48:55.755Z,97042.48
2022-12-13T03:51:30.134Z,97024.26
2022-12-13T03:54:01.483Z,97016.34
2022-12-13T03:56:48.151Z,97019.89
2022-12-13T03:59:34.620Z,97019.89
2022-12-13T04:02:07.860Z,97019.34
2022-12-13T04:04:39.224Z,97014.73
2022-12-13T04:07:21.901Z,97004.10
2022-12-13T04:09:46.426Z,97003.00
2022-12-13T04:13:11.160Z,97004.91
2022-12-13T04:15:48.259Z,97004.10
2022-12-13T04:18:27.378Z,96994.84
2022-12-13T04:24:03.384Z,96995.64
2022-12-13T04:26:36.727Z,96997.30
2022-12-13T04:29:12.562Z,96985.59
2022-12-13T04:31:43.960Z,96986.95
2022-12-13T04:34:21.531Z,96992.66
2022-12-13T04:37:00.334Z,97001.39
2022-12-13T04:39:34.501Z,97003.02
2022-12-13T04:42:10.077Z,97005.19
2022-12-13T04:44:46.240Z,97012.00
2022-12-13T04:47:22.927Z,97008.75
2022-12-13T04:49:54.519Z,97008.20
2022-12-13T04:52:25.608Z,97004.66
2022-12-13T04:54:58.983Z,97006.28
2022-12-13T04:57:44.607Z,96991.30
2022-12-13T05:00:20.680Z,96983.39
2022-12-13T05:02:56.125Z,96988.84
2022-12-13T05:05:31.537Z,96991.56
2022-12-13T05:08:13.356Z,96994.83
2022-12-13T05:10:44.723Z,96991.30
2022-12-13T05:13:28.997Z,96977.41
2022-12-13T05:16:16.924Z,96965.41
2022-12-13T05:22:01.521Z,96963.23
2022-12-13T05:24:32.160Z,96956.68
2022-12-13T05:27:24.508Z,96960.25
2022-12-13T05:29:38.349Z,96949.88
2022-12-13T05:32:10.199Z,96944.13
2022-12-13T05:34:40.989Z,96955.58
2022-12-13T05:37:10.979Z,96949.83
2022-12-13T05:39:41.207Z,96939.48
2022-12-13T05:42:12.492Z,96935.69
2022-12-13T05:44:42.791Z,96947.95
2022-12-13T05:47:25.765Z,96958.29
2022-12-13T05:49:56.624Z,96951.19
2022-12-13T05:52:31.239Z,96946.84
2022-12-13T05:55:02.216Z,96953.64
2022-12-13T05:57:32.170Z,96945.22
2022-12-13T06:00:29.065Z,96935.94
2022-12-13T06:02:45.882Z,96928.58
2022-12-13T06:05:18.229Z,96917.17
2022-12-13T06:07:55.103Z,96907.89
2022-12-13T06:10:23.078Z,96879.30
2022-12-13T06:12:54.212Z,96883.64
2022-12-13T06:15:25.959Z,96875.20
2022-12-13T06:17:57.418Z,96886.09
2022-12-13T06:20:39.247Z,96881.20
2022-12-13T06:23:10.241Z,96889.63
2022-12-13T06:25:42.455Z,96886.91
2022-12-13T06:28:12.492Z,96896.98
2022-12-13T06:31:01.266Z,96886.38
2022-12-13T06:33:31.354Z,96876.55
2022-12-13T06:36:05.658Z,96873.58
2022-12-13T06:38:43.549Z,96881.45
2022-12-13T06:41:15.116Z,96882.28
2022-12-13T06:43:46.092Z,96875.48
2022-12-13T06:46:16.687Z,96875.19
2022-12-13T06:48:46.843Z,96870.03
2022-12-13T06:51:22.806Z,96868.12
2022-12-13T06:53:53.133Z,96862.67
2022-12-13T06:56:29.832Z,96856.41
2022-12-13T06:59:02.475Z,96836.52
2022-12-13T07:01:36.753Z,96839.23
2022-12-13T07:04:29.657Z,96826.98
2022-12-13T07:09:33.595Z,96821.28
2022-12-13T07:12:05.100Z,96792.15
2022-12-13T07:14:42.047Z,96792.15
2022-12-13T07:17:12.208Z,96812.55
2022-12-13T07:19:46.000Z,96804.67
2022-12-13T07:22:22.046Z,96791.61
2022-12-13T07:25:07.412Z,96796.22
2022-12-13T07:27:39.175Z,96779.62
2022-12-13T07:30:11.199Z,96770.64
2022-12-13T07:32:41.960Z,96765.20
2022-12-13T07:35:12.630Z,96760.81
2022-12-13T07:37:45.867Z,96762.73
2022-12-13T07:40:16.609Z,96753.20
2022-12-13T07:42:56.856Z,96740.43
2022-12-13T07:45:29.008Z,96730.06
2022-12-13T07:47:59.591Z,96724.62
2022-12-13T07:50:36.897Z,96717.30
2022-12-13T07:53:04.715Z,96709.38
2022-12-13T07:55:35.287Z,96699.59
2022-12-13T07:58:08.265Z,96705.56
2022-12-13T08:00:39.180Z,96706.11
2022-12-13T08:03:17.977Z,96692.50
2022-12-13T08:05:44.424Z,96686.25
2022-12-13T08:08:19.141Z,96679.19
2022-12-13T08:10:51.739Z,96668.30
2022-12-13T08:13:25.345Z,96662.30
2022-12-13T08:16:03.352Z,96650.05
2022-12-13T08:18:35.409Z,96633.72
2022-12-13T08:21:30.426Z,96631.26
2022-12-13T08:23:40.615Z,96618.75
2022-12-13T08:26:10.839Z,96601.32
2022-12-13T08:28:42.902Z,96592.89
2022-12-13T08:31:15.349Z,96573.84
2022-12-13T08:33:49.563Z,96576.31
2022-12-13T08:36:20.668Z,96534.95
2022-12-13T08:38:57.925Z,96534.95
2022-12-13T08:41:39.599Z,96554.80
2022-12-13T08:44:09.836Z,96546.08
2022-12-13T08:46:44.846Z,96545.53
2022-12-13T08:49:19.470Z,96545.53
2022-12-13T08:51:50.902Z,96550.98
2022-12-13T08:54:31.670Z,96538.73
2022-12-13T08:57:02.574Z,96536.56
2022-12-13T08:59:32.786Z,96528.14
2022-12-13T09:02:05.538Z,96534.66
2022-12-13T09:04:35.134Z,96520.24
2022-12-13T09:07:07.322Z,96520.24
2022-12-13T09:09:38.612Z,96518.87
2022-12-13T09:12:10.965Z,96527.89
2022-12-13T09:14:45.541Z,96540.65
2022-12-13T09:17:24.118Z,96535.76
2022-12-13T09:19:48.431Z,96534.14
2022-12-13T09:22:33.579Z,96532.78
2022-12-13T09:24:52.949Z,96520.80
2022-12-13T09:27:28.772Z,96506.94
2022-12-13T09:30:01.818Z,96504.77
2022-12-13T09:32:32.760Z,96503.92
2022-12-13T09:35:04.981Z,96500.39
2022-12-13T09:37:42.545Z,96527.60
2022-12-13T09:40:25.232Z,96533.05
2022-12-13T09:42:47.910Z,96550.47
2022-12-13T09:45:22.148Z,96564.08
2022-12-13T09:47:52.234Z,96552.38
2022-12-13T09:50:38.182Z,96533.59
2022-12-13T09:53:12.121Z,96530.62
2022-12-13T09:56:10.220Z,96539.03
2022-12-13T09:58:34.412Z,96539.33
2022-12-13T10:01:23.065Z,96540.14
2022-12-13T10:03:53.779Z,96536.61
2022-12-13T10:06:25.483Z,96512.38
2022-12-13T10:11:53.848Z,96460.44
2022-12-13T10:14:27.352Z,96436.20
2022-12-13T10:16:59.193Z,96437.31
2022-12-13T10:19:41.812Z,96442.47
2022-12-13T10:22:14.130Z,96469.67
2022-12-13T10:25:01.673Z,96469.67
2022-12-13T10:27:48.097Z,96448.45
2022-12-13T10:30:27.972Z,96456.91
2022-12-13T10:32:58.368Z,96428.34
2022-12-13T10:35:37.029Z,96424.80
2022-12-13T10:38:13.782Z,96431.59
2022-12-13T10:40:48.636Z,96423.17
2022-12-13T10:43:42.804Z,96423.17
2022-12-13T10:46:17.920Z,96404.67
2022-12-13T10:48:59.555Z,96390.27
2022-12-13T10:51:33.647Z,96370.39
2022-12-13T10:54:05.678Z,96341.83
2022-12-13T10:56:40.229Z,96326.61
2022-12-13T10:59:17.681Z,96333.96
2022-12-13T11:05:34.797Z,96308.12
2022-12-13T11:08:28.812Z,96296.44
2022-12-13T11:11:28.652Z,96283.91
2022-12-13T11:14:06.666Z,96266.22
2022-12-13T11:16:43.405Z,96277.66
2022-12-13T11:19:32.586Z,96283.65
2022-12-13T11:23:00.682Z,96290.45
2022-12-13T11:25:38.927Z,96283.36
2022-12-13T11:28:39.871Z,96306.48
2022-12-13T11:31:42.378Z,96303.51
2022-12-13T11:37:43.761Z,96267.89
2022-12-13T11:43:39.106Z,96271.13
2022-12-13T12:00:02.201Z,96483.28
2022-12-13T12:02:57.408Z,96462.37
2022-12-13T12:06:05.738Z,96405.48
2022-12-13T12:08:55.622Z,96337.77
2022-12-13T12:15:27.540Z,96539.89
2022-12-13T12:20:58.293Z,96438.36
2022-12-13T12:23:38.581Z,96409.23
2022-12-13T12:26:12.377Z,96417.63
2022-12-13T12:28:54.704Z,96420.34
2022-12-13T12:31:51.078Z,96452.44
2022-12-13T12:34:37.957Z,96439.91
2022-12-13T12:37:24.692Z,96450.75
2022-12-13T12:43:15.352Z,96490.99
2022-12-13T12:45:58.401Z,96507.28
2022-12-13T12:49:02.425Z,96529.08
2022-12-13T12:51:53.068Z,96528.81
2022-12-13T12:55:07.457Z,96547.55
2022-12-13T12:58:08.446Z,96566.05
2022-12-13T13:00:47.140Z,96564.12
2022-12-13T13:06:22.258Z,96568.47
2022-12-13T13:09:03.485Z,96586.96
2022-12-13T13:11:43.094Z,96583.93
2022-12-13T13:14:34.290Z,96595.36
2022-12-13T13:17:22.352Z,96590.16
2022-12-13T13:20:26.837Z,96585.25
2022-12-13T13:23:39.013Z,96581.16
2022-12-13T16:16:26.729Z,96703.59
2022-12-13T16:19:02.698Z,96699.77
2022-12-13T16:21:32.717Z,96722.11
2022-12-13T16:24:03.555Z,96718.31
2022-12-13T16:30:21.610Z,96724.58
2022-12-13T16:35:25.255Z,96724.84
2022-12-13T16:37:59.402Z,96721.30
2022-12-13T16:40:30.624Z,96717.48
2022-12-13T16:43:03.007Z,96717.22
2022-12-13T16:45:42.945Z,96711.52
2022-12-13T16:48:08.059Z,96715.59
2022-12-13T16:50:39.956Z,96704.14
2022-12-13T16:53:17.348Z,96700.87
2022-12-13T16:55:58.222Z,96701.42
2022-12-13T16:58:21.077Z,96702.49
2022-12-13T17:00:58.879Z,96698.95
2022-12-13T17:03:27.459Z,96686.70
2022-12-13T17:05:59.200Z,96696.23
2022-12-13T17:08:30.102Z,96697.34
2022-12-13T17:11:00.199Z,96700.32
2022-12-13T17:13:32.707Z,96703.59
2022-12-13T17:16:03.084Z,96709.86
2022-12-13T17:18:36.684Z,96707.69
2022-12-13T17:21:10.637Z,96704.15
2022-12-13T17:23:43.005Z,96693.80
2022-12-13T17:26:14.140Z,96690.53
2022-12-13T17:28:45.075Z,96683.98
2022-12-13T17:31:15.964Z,96679.63
2022-12-13T17:33:45.972Z,96675.80
2022-12-13T17:36:16.933Z,96668.73
2022-12-13T17:38:47.507Z,96666.27
2022-12-13T17:41:17.810Z,96656.73
2022-12-13T17:43:48.418Z,96652.39
2022-12-13T17:46:20.213Z,96652.39
2022-12-13T17:48:51.405Z,96652.39
2022-12-13T17:51:22.956Z,96645.84
2022-12-13T17:53:54.428Z,96650.77
2022-12-13T17:56:25.116Z,96642.59
2022-12-13T17:58:57.704Z,96636.86
2022-12-13T18:01:29.605Z,96629.23
2022-12-13T18:03:59.736Z,96617.78
2022-12-13T18:06:30.041Z,96610.16
2022-12-13T18:09:00.636Z,96597.90
2022-12-13T18:11:33.746Z,96589.99
2022-12-13T18:14:06.369Z,96568.20
2022-12-13T18:16:39.961Z,96566.84
2022-12-13T18:19:11.469Z,96575.30
2022-12-13T18:21:41.876Z,96567.67
2022-12-13T18:24:12.620Z,96557.85
2022-12-13T18:26:43.028Z,96555.13
2022-12-13T18:29:13.164Z,96552.41
2022-12-13T18:31:43.663Z,96557.59
2022-12-13T18:34:13.786Z,96553.77
2022-12-13T18:36:43.922Z,96539.89
2022-12-13T18:39:14.113Z,96554.58
2022-12-13T18:41:44.655Z,96556.50
2022-12-13T18:44:14.962Z,96548.61
2022-12-13T18:46:49.720Z,96543.69
2022-12-13T18:49:23.284Z,96542.07
2022-12-13T18:51:54.095Z,96533.89
2022-12-13T18:54:28.612Z,96527.09
2022-12-13T18:56:57.907Z,96529.00
2022-12-13T18:59:36.487Z,96523.55
2022-12-13T19:02:07.131Z,96514.83
2022-12-13T19:04:37.367Z,96513.46
2022-12-13T19:07:10.756Z,96513.20
2022-12-13T19:09:41.113Z,96502.83
2022-12-13T19:12:13.010Z,96506.11
2022-12-13T19:14:54.593Z,96497.94
2022-12-13T19:17:21.806Z,96484.31
2022-12-13T19:19:52.838Z,96477.51
2022-12-13T19:22:24.195Z,96476.14
2022-12-13T19:24:54.941Z,96466.61
2022-12-13T19:27:26.129Z,96458.44
2022-12-13T19:30:00.907Z,96466.61
2022-12-13T19:32:31.684Z,96457.36
2022-12-13T19:35:14.429Z,96461.45
2022-12-13T19:37:45.171Z,96462.81
2022-12-13T19:40:15.548Z,96456.52
2022-12-13T19:42:46.009Z,96457.88
2022-12-13T19:45:17.567Z,96466.05
2022-12-13T19:47:48.867Z,96470.14
2022-12-13T19:50:19.566Z,96461.45
2022-12-13T19:52:49.843Z,96460.08
2022-12-13T19:55:24.319Z,96462.25
2022-12-13T19:57:54.981Z,96456.80
2022-12-13T20:00:27.736Z,96456.52
2022-12-13T20:03:09.208Z,96460.34
2022-12-13T20:05:45.415Z,96458.98
2022-12-13T20:08:14.414Z,96460.34
2022-12-13T20:10:44.585Z,96453.53
2022-12-13T20:13:14.663Z,96466.05
2022-12-13T20:15:51.385Z,96469.61
2022-12-13T20:18:23.106Z,96468.24
2022-12-13T20:21:10.956Z,96463.60
2022-12-13T20:23:27.020Z,96458.70
2022-12-13T20:26:04.150Z,96452.95
2022-12-13T20:28:34.426Z,96452.95
2022-12-13T20:31:12.073Z,96453.77
2022-12-13T20:33:45.035Z,96455.13
2022-12-13T20:36:25.870Z,96455.97
2022-12-13T20:38:53.663Z,96465.20
2022-12-13T20:41:24.504Z,96463.59
2022-12-13T20:43:55.822Z,96475.55
2022-12-13T20:46:27.448Z,96481.00
2022-12-13T20:48:59.089Z,96487.81
2022-12-13T20:51:30.419Z,96482.36
2022-12-13T20:54:00.686Z,96466.30
2022-12-13T20:56:32.568Z,96470.64
2022-12-13T20:59:03.449Z,96464.38
2022-12-13T21:01:35.756Z,96467.36
2022-12-13T21:04:06.350Z,96464.92
2022-12-13T21:06:37.503Z,96464.92
2022-12-13T21:09:07.662Z,96471.18
2022-12-13T21:11:48.089Z,96471.18
2022-12-13T21:14:29.559Z,96473.61
2022-12-13T21:17:02.897Z,96474.44
2022-12-13T21:19:40.510Z,96471.16
2022-12-13T21:22:10.054Z,96470.86
2022-12-13T21:24:40.280Z,96479.33
2022-12-13T21:27:10.486Z,96478.77
2022-12-13T21:29:41.156Z,96480.13
2022-12-13T21:32:11.206Z,96486.38
2022-12-13T21:34:41.852Z,96488.83
2022-12-13T21:37:12.677Z,96489.36
2022-12-13T21:39:42.719Z,96491.81
2022-12-13T21:42:14.363Z,96491.55
2022-12-13T21:44:44.741Z,96488.27
2022-12-13T21:47:14.898Z,96496.69
2022-12-13T21:49:48.602Z,96493.41
2022-12-13T21:52:16.936Z,96499.41
2022-12-13T21:54:52.908Z,96495.87
2022-12-13T21:57:39.810Z,96496.41
2022-12-13T22:00:11.856Z,96505.95
2022-12-13T22:02:41.968Z,96504.03
2022-12-13T22:05:12.432Z,96504.28
2022-12-13T22:07:42.646Z,96504.57
2022-12-13T22:10:12.792Z,96495.03
2022-12-13T22:12:43.357Z,96494.19
2022-12-13T22:15:15.998Z,96496.34
2022-12-13T22:17:46.931Z,96513.55
2022-12-13T22:20:19.092Z,96500.16
2022-12-13T22:22:49.558Z,96509.96
2022-12-13T22:25:24.362Z,96518.98
2022-12-13T22:27:55.743Z,96526.30
2022-12-13T22:30:27.061Z,96520.84
2022-12-13T22:32:58.409Z,96519.48
2022-12-13T22:35:30.802Z,96522.50
2022-12-13T22:38:03.775Z,96518.66
2022-12-13T22:40:33.762Z,96521.67
2022-12-13T22:43:08.694Z,96523.84
2022-12-13T22:45:38.411Z,96523.03
2022-12-13T22:48:09.193Z,96527.36
2022-12-13T22:50:39.736Z,96528.17
2022-12-13T22:53:10.658Z,96516.71
2022-12-13T22:55:42.330Z,96518.36
2022-12-13T22:58:12.708Z,96547.80
2022-12-13T23:00:43.760Z,96560.06
2022-12-13T23:03:14.782Z,96558.70
2022-12-13T23:05:46.303Z,96549.97
2022-12-13T23:12:02.831Z,96530.33
2022-12-13T23:14:37.810Z,96534.70
2022-12-13T23:17:08.040Z,96563.58
2022-12-13T23:19:49.032Z,96554.33
2022-12-13T23:22:13.624Z,96554.33
2022-12-13T23:24:44.536Z,96572.31
2022-12-13T23:27:15.465Z,96590.59
2022-12-13T23:29:47.788Z,96602.86
2022-12-13T23:32:17.787Z,96606.11
2022-12-13T23:34:50.591Z,96610.48
2022-12-13T23:37:20.742Z,96611.05
2022-12-13T23:39:50.945Z,96608.31
2022-12-13T23:42:20.984Z,96607.48
2022-12-13T23:44:50.963Z,96621.39
2022-12-13T23:47:22.730Z,96626.56
2022-12-13T23:49:53.408Z,96617.57
2022-12-13T23:52:25.728Z,96623.31
2022-12-13T23:55:01.241Z,96627.41
2022-12-13T23:57:35.897Z,96631.20
